createdAt,value
2022-10-06T00:00:12.687Z,99.99
2022-10-06T00:01:12.756Z,99.99
2022-10-06T00:02:12.708Z,99.99
2022-10-06T00:03:12.669Z,99.99
2022-10-06T00:04:12.687Z,99.99
2022-10-06T00:05:12.683Z,99.99
2022-10-06T00:06:12.667Z,99.99
2022-10-06T00:07:12.686Z,99.99
2022-10-06T00:08:12.672Z,99.99
2022-10-06T00:09:12.671Z,99.99
2022-10-06T00:10:12.680Z,99.99
2022-10-06T00:11:12.678Z,99.99
2022-10-06T00:12:12.695Z,99.99
2022-10-06T00:13:12.681Z,99.99
2022-10-06T00:14:12.672Z,99.99
2022-10-06T00:15:12.687Z,99.99
2022-10-06T00:16:12.735Z,99.99
2022-10-06T00:17:12.668Z,99.99
2022-10-06T00:18:12.699Z,99.99
2022-10-06T00:19:12.685Z,99.99
2022-10-06T00:20:12.712Z,99.99
2022-10-06T00:21:12.690Z,99.99
2022-10-06T00:22:12.676Z,99.99
2022-10-06T00:23:12.781Z,99.99
2022-10-06T00:24:12.688Z,99.99
2022-10-06T00:25:12.681Z,99.99
2022-10-06T00:26:12.704Z,99.99
2022-10-06T00:27:12.702Z,99.99
2022-10-06T00:28:12.718Z,99.99
2022-10-06T00:29:12.685Z,99.99
2022-10-06T00:30:12.692Z,99.99
2022-10-06T00:31:12.777Z,99.99
2022-10-06T00:32:12.700Z,99.99
2022-10-06T00:33:12.706Z,99.99
2022-10-06T00:34:12.689Z,99.99
2022-10-06T00:35:12.698Z,99.99
2022-10-06T00:36:12.706Z,99.99
2022-10-06T00:37:12.699Z,99.99
2022-10-06T00:38:12.691Z,99.99
2022-10-06T00:39:12.692Z,99.99
2022-10-06T00:40:12.702Z,99.99
2022-10-06T00:41:12.709Z,99.99
2022-10-06T00:42:12.706Z,99.99
2022-10-06T00:43:12.714Z,99.99
2022-10-06T00:44:12.711Z,99.99
2022-10-06T00:45:12.728Z,99.99
2022-10-06T00:46:12.737Z,99.99
2022-10-06T00:47:12.713Z,99.99
2022-10-06T00:48:12.712Z,99.99
2022-10-06T00:49:12.711Z,99.99
2022-10-06T00:50:12.722Z,99.99
2022-10-06T00:51:12.728Z,99.99
2022-10-06T00:52:12.717Z,99.99
2022-10-06T00:53:12.723Z,99.99
2022-10-06T00:54:12.714Z,99.99
2022-10-06T00:55:12.728Z,99.99
2022-10-06T00:56:12.727Z,99.99
2022-10-06T00:57:12.718Z,99.99
2022-10-06T00:58:12.723Z,99.99
2022-10-06T00:59:12.713Z,99.99
2022-10-06T01:00:12.709Z,99.99
2022-10-06T01:01:12.782Z,99.99
2022-10-06T01:02:12.718Z,99.99
2022-10-06T01:03:12.742Z,99.99
2022-10-06T01:04:12.720Z,99.99
2022-10-06T01:05:12.724Z,99.99
2022-10-06T01:06:12.726Z,99.99
2022-10-06T01:07:12.747Z,99.99
2022-10-06T01:08:12.723Z,99.99
2022-10-06T01:09:12.736Z,99.99
2022-10-06T01:10:12.738Z,99.99
2022-10-06T01:11:12.738Z,99.99
2022-10-06T01:12:12.751Z,99.99
2022-10-06T01:13:12.729Z,99.99
2022-10-06T01:14:12.738Z,99.99
2022-10-06T01:15:12.736Z,99.99
2022-10-06T01:16:12.786Z,99.99
2022-10-06T01:17:12.761Z,99.99
2022-10-06T01:18:12.747Z,99.99
2022-10-06T01:19:12.740Z,99.99
2022-10-06T01:20:12.745Z,99.99
2022-10-06T01:21:12.746Z,99.99
2022-10-06T01:22:12.745Z,99.99
2022-10-06T01:23:12.759Z,99.99
2022-10-06T01:24:12.742Z,99.99
2022-10-06T01:25:12.745Z,99.99
2022-10-06T01:26:12.749Z,99.99
2022-10-06T01:27:12.772Z,99.99
2022-10-06T01:28:12.789Z,99.99
2022-10-06T01:29:12.762Z,99.99
2022-10-06T01:30:12.767Z,99.99
2022-10-06T01:31:12.820Z,99.99
2022-10-06T01:32:12.748Z,99.99
2022-10-06T01:33:12.758Z,99.99
2022-10-06T01:34:12.748Z,99.99
2022-10-06T01:35:12.759Z,99.99
2022-10-06T01:36:12.776Z,99.99
2022-10-06T01:37:12.752Z,99.99
2022-10-06T01:38:12.759Z,99.99
2022-10-06T01:39:12.766Z,99.99
2022-10-06T01:40:12.770Z,99.99
2022-10-06T01:41:12.773Z,99.99
2022-10-06T01:42:12.757Z,99.99
2022-10-06T01:43:12.776Z,99.99
2022-10-06T01:44:12.766Z,99.99
2022-10-06T01:45:12.770Z,99.99
2022-10-06T01:46:12.868Z,99.99
2022-10-06T01:47:12.770Z,99.99
2022-10-06T01:48:12.780Z,99.99
2022-10-06T01:49:12.797Z,99.99
2022-10-06T01:50:12.763Z,99.99
2022-10-06T01:51:12.766Z,99.99
2022-10-06T01:52:12.764Z,99.99
2022-10-06T01:53:12.768Z,99.99
2022-10-06T01:54:12.781Z,99.99
2022-10-06T01:55:12.767Z,99.99
2022-10-06T01:56:12.784Z,99.99
2022-10-06T01:57:12.774Z,99.99
2022-10-06T01:58:12.776Z,99.99
2022-10-06T01:59:12.787Z,99.99
2022-10-06T02:00:12.812Z,99.99
2022-10-06T02:01:12.828Z,99.99
2022-10-06T02:02:12.794Z,99.99
2022-10-06T02:03:12.792Z,99.99
2022-10-06T02:04:12.846Z,99.99
2022-10-06T02:05:12.792Z,99.99
2022-10-06T02:06:12.862Z,99.99
2022-10-06T02:07:12.796Z,99.99
2022-10-06T02:08:12.785Z,99.99
2022-10-06T02:09:12.798Z,99.99
2022-10-06T02:10:12.832Z,99.99
2022-10-06T02:11:12.805Z,99.99
2022-10-06T02:12:12.805Z,99.99
2022-10-06T02:13:12.801Z,99.99
2022-10-06T02:14:12.803Z,99.99
2022-10-06T02:15:12.802Z,99.99
2022-10-06T02:16:12.852Z,99.99
2022-10-06T02:17:12.843Z,99.99
2022-10-06T02:18:12.806Z,99.99
2022-10-06T02:19:12.812Z,99.99
2022-10-06T02:20:12.813Z,99.99
2022-10-06T02:21:12.814Z,99.99
2022-10-06T02:22:12.841Z,99.99
2022-10-06T02:23:12.817Z,99.99
2022-10-06T02:24:12.829Z,99.99
2022-10-06T02:25:12.807Z,99.99
2022-10-06T02:26:12.814Z,99.99
2022-10-06T02:27:12.815Z,99.99
2022-10-06T02:28:12.838Z,99.99
2022-10-06T02:29:12.822Z,99.99
2022-10-06T02:30:12.828Z,99.99
2022-10-06T02:31:12.841Z,99.99
2022-10-06T02:32:12.839Z,99.99
2022-10-06T02:33:12.818Z,99.99
2022-10-06T02:34:12.833Z,99.99
2022-10-06T02:35:12.833Z,99.99
2022-10-06T02:36:12.820Z,99.99
2022-10-06T02:37:12.829Z,99.99
2022-10-06T02:38:12.831Z,99.99
2022-10-06T02:39:12.840Z,99.99
2022-10-06T02:40:12.838Z,99.99
2022-10-06T02:41:12.828Z,99.99
2022-10-06T02:42:12.825Z,99.99
2022-10-06T02:43:12.837Z,99.99
2022-10-06T02:44:12.856Z,99.99
2022-10-06T02:45:12.824Z,99.99
2022-10-06T02:46:12.917Z,99.99
2022-10-06T02:47:12.836Z,99.99
2022-10-06T02:48:12.841Z,99.99
2022-10-06T02:49:12.863Z,99.99
2022-10-06T02:50:12.842Z,99.99
2022-10-06T02:51:12.839Z,99.99
2022-10-06T02:52:12.842Z,99.99
2022-10-06T02:53:12.865Z,99.99
2022-10-06T02:54:12.854Z,99.99
2022-10-06T02:55:12.850Z,99.99
2022-10-06T02:56:12.846Z,99.99
2022-10-06T02:57:12.842Z,99.99
2022-10-06T02:58:12.850Z,99.99
2022-10-06T02:59:12.870Z,99.99
2022-10-06T03:00:12.854Z,99.99
2022-10-06T03:01:12.842Z,99.99
2022-10-06T03:02:12.934Z,99.99
2022-10-06T03:03:12.843Z,99.99
2022-10-06T03:04:12.876Z,99.99
2022-10-06T03:05:12.856Z,99.99
2022-10-06T03:06:12.856Z,99.99
2022-10-06T03:07:12.853Z,99.99
2022-10-06T03:08:12.863Z,99.99
2022-10-06T03:09:12.873Z,99.99
2022-10-06T03:10:12.894Z,99.99
2022-10-06T03:11:12.889Z,99.99
2022-10-06T03:12:12.851Z,99.99
2022-10-06T03:13:12.866Z,99.99
2022-10-06T03:14:14.116Z,99.99
2022-10-06T03:15:12.871Z,99.99
2022-10-06T03:16:12.936Z,99.99
2022-10-06T03:17:12.869Z,99.99
2022-10-06T03:18:12.863Z,99.99
2022-10-06T03:19:12.871Z,99.99
2022-10-06T03:20:12.861Z,99.99
2022-10-06T03:21:12.863Z,99.99
2022-10-06T03:22:12.886Z,99.99
2022-10-06T03:23:13.768Z,99.99
2022-10-06T03:24:12.884Z,99.99
2022-10-06T03:25:12.870Z,99.99
2022-10-06T03:26:12.880Z,99.99
2022-10-06T03:27:12.883Z,99.99
2022-10-06T03:28:12.946Z,99.99
2022-10-06T03:29:12.883Z,99.99
2022-10-06T03:30:12.880Z,99.99
2022-10-06T03:31:12.924Z,99.99
2022-10-06T03:32:12.890Z,99.99
2022-10-06T03:33:12.897Z,99.99
2022-10-06T03:34:12.873Z,99.99
2022-10-06T03:35:12.904Z,99.99
2022-10-06T03:36:12.878Z,99.99
2022-10-06T03:37:12.882Z,99.99
2022-10-06T03:38:12.891Z,99.99
2022-10-06T03:39:12.913Z,99.99
2022-10-06T03:40:12.901Z,99.99
2022-10-06T03:41:12.891Z,99.99
2022-10-06T03:42:13.000Z,99.99
2022-10-06T03:43:12.893Z,99.99
2022-10-06T03:44:12.907Z,99.99
2022-10-06T03:45:12.891Z,99.99
2022-10-06T03:46:12.991Z,99.99
2022-10-06T03:47:19.940Z,99.99
2022-10-06T03:48:12.915Z,99.99
2022-10-06T03:49:12.897Z,99.99
2022-10-06T03:50:12.890Z,99.99
2022-10-06T03:51:12.906Z,99.99
2022-10-06T03:52:12.897Z,99.99
2022-10-06T03:53:12.895Z,99.99
2022-10-06T03:54:12.938Z,99.99
2022-10-06T03:55:12.899Z,99.99
2022-10-06T03:56:12.928Z,99.99
2022-10-06T03:57:12.922Z,99.99
2022-10-06T03:58:12.898Z,99.99
2022-10-06T03:59:12.908Z,99.99
2022-10-06T04:00:12.947Z,99.99
2022-10-06T04:01:12.985Z,99.99
2022-10-06T04:02:12.974Z,99.99
2022-10-06T04:03:12.923Z,99.99
2022-10-06T04:04:12.910Z,99.99
2022-10-06T04:05:12.907Z,99.99
2022-10-06T04:06:12.942Z,99.99
2022-10-06T04:07:12.911Z,99.99
2022-10-06T04:08:12.929Z,99.99
2022-10-06T04:09:15.628Z,99.99
2022-10-06T04:10:12.914Z,99.99
2022-10-06T04:11:12.925Z,99.99
2022-10-06T04:12:12.912Z,99.99
2022-10-06T04:13:12.924Z,99.99
2022-10-06T04:14:12.934Z,99.99
2022-10-06T04:15:12.923Z,99.99
2022-10-06T04:16:12.969Z,99.99
2022-10-06T04:17:12.930Z,99.99
2022-10-06T04:18:12.939Z,99.99
2022-10-06T04:19:12.941Z,99.99
2022-10-06T04:20:12.921Z,99.99
2022-10-06T04:21:12.937Z,99.99
2022-10-06T04:22:12.945Z,99.99
2022-10-06T04:23:12.944Z,99.99
2022-10-06T04:24:12.960Z,99.99
2022-10-06T04:25:12.927Z,99.99
2022-10-06T04:26:12.928Z,99.99
2022-10-06T04:27:12.940Z,99.99
2022-10-06T04:28:12.954Z,99.99
2022-10-06T04:29:12.933Z,99.99
2022-10-06T04:30:12.960Z,99.99
2022-10-06T04:31:12.971Z,99.99
2022-10-06T04:32:12.943Z,99.99
2022-10-06T04:33:12.940Z,99.99
2022-10-06T04:34:12.947Z,99.99
2022-10-06T04:35:12.959Z,99.99
2022-10-06T04:36:12.960Z,99.99
2022-10-06T04:37:12.954Z,99.99
2022-10-06T04:38:12.952Z,99.99
2022-10-06T04:39:12.950Z,99.99
2022-10-06T04:40:12.961Z,99.99
2022-10-06T04:41:12.949Z,99.99
2022-10-06T04:42:12.943Z,99.99
2022-10-06T04:43:12.956Z,99.99
2022-10-06T04:44:12.973Z,98.62
2022-10-06T04:45:12.943Z,98.72
2022-10-06T04:46:41.014Z,98.91
2022-10-06T04:47:12.959Z,98.33
2022-10-06T04:48:12.950Z,98.05
2022-10-06T04:49:18.966Z,97.56
2022-10-06T04:50:12.973Z,97.56
2022-10-06T04:51:12.958Z,97.81
2022-10-06T04:52:12.965Z,97.61
2022-10-06T04:53:12.989Z,98.62
2022-10-06T04:54:12.970Z,98.52
2022-10-06T04:55:12.966Z,98.24
2022-10-06T04:56:12.962Z,98.48
2022-10-06T04:57:12.971Z,99.10
2022-10-06T04:58:12.978Z,98.14
2022-10-06T04:59:12.981Z,98.43
2022-10-06T05:00:15.048Z,98.43
2022-10-06T05:01:13.018Z,98.24
2022-10-06T05:02:13.075Z,98.05
2022-10-06T05:03:12.982Z,97.38
2022-10-06T05:04:12.984Z,97.66
2022-10-06T05:05:12.987Z,96.99
2022-10-06T05:06:12.977Z,96.42
2022-10-06T05:07:13.006Z,97.47
2022-10-06T05:08:12.981Z,97.52
2022-10-06T05:09:12.986Z,96.61
2022-10-06T05:10:12.997Z,97.04
2022-10-06T05:11:15.177Z,96.89
2022-10-06T05:12:12.988Z,97.28
2022-10-06T05:13:12.992Z,96.80
2022-10-06T05:14:12.983Z,96.80
2022-10-06T05:15:12.984Z,96.70
2022-10-06T05:16:13.062Z,96.99
2022-10-06T05:17:12.995Z,96.51
2022-10-06T05:18:13.005Z,96.80
2022-10-06T05:19:12.995Z,96.51
2022-10-06T05:20:12.989Z,96.51
2022-10-06T05:21:12.984Z,96.51
2022-10-06T05:22:13.001Z,96.03
2022-10-06T05:23:13.005Z,96.42
2022-10-06T05:24:12.996Z,96.61
2022-10-06T05:25:12.999Z,96.51
2022-10-06T05:26:13.003Z,97.18
2022-10-06T05:27:12.989Z,97.18
2022-10-06T05:28:13.083Z,97.28
2022-10-06T05:29:12.991Z,97.38
2022-10-06T05:30:12.994Z,96.99
2022-10-06T05:31:13.019Z,97.18
2022-10-06T05:32:13.014Z,96.99
2022-10-06T05:33:13.020Z,96.61
2022-10-06T05:34:13.013Z,96.80
2022-10-06T05:35:12.998Z,96.42
2022-10-06T05:36:13.018Z,96.22
2022-10-06T05:37:13.013Z,95.56
2022-10-06T05:38:13.002Z,96.22
2022-10-06T05:39:13.027Z,95.36
2022-10-06T05:40:13.017Z,95.75
2022-10-06T05:41:13.006Z,95.26
2022-10-06T05:42:13.016Z,95.84
2022-10-06T05:43:13.023Z,95.46
2022-10-06T05:44:13.039Z,95.17
2022-10-06T05:45:13.018Z,95.75
2022-10-06T05:46:13.078Z,95.75
2022-10-06T05:47:13.024Z,95.75
2022-10-06T05:48:13.016Z,95.75
2022-10-06T05:49:13.044Z,95.46
2022-10-06T05:50:13.033Z,95.84
2022-10-06T05:51:13.030Z,95.84
2022-10-06T05:52:13.024Z,96.03
2022-10-06T05:53:13.017Z,95.84
2022-10-06T05:54:13.034Z,95.65
2022-10-06T05:55:13.043Z,95.56
2022-10-06T05:56:13.027Z,95.07
2022-10-06T05:57:13.037Z,95.26
2022-10-06T05:58:17.759Z,95.07
2022-10-06T05:59:13.032Z,95.07
2022-10-06T06:00:13.023Z,94.79
2022-10-06T06:01:13.095Z,95.07
2022-10-06T06:02:13.181Z,94.98
2022-10-06T06:03:13.027Z,94.89
2022-10-06T06:04:13.039Z,95.75
2022-10-06T06:05:13.030Z,95.51
2022-10-06T06:06:13.055Z,95.51
2022-10-06T06:07:13.030Z,95.26
2022-10-06T06:08:13.060Z,95.17
2022-10-06T06:09:13.043Z,95.36
2022-10-06T06:10:13.060Z,95.22
2022-10-06T06:11:13.073Z,95.41
2022-10-06T06:12:13.049Z,95.70
2022-10-06T06:13:13.043Z,95.51
2022-10-06T06:14:13.058Z,95.79
2022-10-06T06:15:13.039Z,95.22
2022-10-06T06:16:13.098Z,94.79
2022-10-06T06:17:13.052Z,93.83
2022-10-06T06:18:13.047Z,93.35
2022-10-06T06:19:13.060Z,93.06
2022-10-06T06:20:13.058Z,93.54
2022-10-06T06:21:13.056Z,93.35
2022-10-06T06:22:13.068Z,93.30
2022-10-06T06:23:13.062Z,91.81
2022-10-06T06:24:13.064Z,91.52
2022-10-06T06:25:13.096Z,91.05
2022-10-06T06:26:13.065Z,91.14
2022-10-06T06:27:13.065Z,90.37
2022-10-06T06:28:13.622Z,89.41
2022-10-06T06:29:13.065Z,89.12
2022-10-06T06:30:13.082Z,88.79
2022-10-06T06:31:16.298Z,88.11
2022-10-06T06:32:13.061Z,87.63
2022-10-06T06:33:13.068Z,88.40
2022-10-06T06:34:13.059Z,89.03
2022-10-06T06:35:13.153Z,89.89
2022-10-06T06:36:13.077Z,89.70
2022-10-06T06:37:15.383Z,90.47
2022-10-06T06:38:13.065Z,90.47
2022-10-06T06:39:13.085Z,91.05
2022-10-06T06:40:13.069Z,91.42
2022-10-06T06:41:13.070Z,92.05
2022-10-06T06:42:13.098Z,92.15
2022-10-06T06:43:13.114Z,92.05
2022-10-06T06:44:13.070Z,92.91
2022-10-06T06:45:13.074Z,93.11
2022-10-06T06:46:13.268Z,92.44
2022-10-06T06:47:13.088Z,92.72
2022-10-06T06:48:13.090Z,93.40
2022-10-06T06:49:13.076Z,93.30
2022-10-06T06:50:13.077Z,93.21
2022-10-06T06:51:13.079Z,92.86
2022-10-06T06:52:13.094Z,92.77
2022-10-06T06:53:16.232Z,92.86
2022-10-06T06:54:13.120Z,92.86
2022-10-06T06:55:13.106Z,93.06
2022-10-06T06:56:13.091Z,92.10
2022-10-06T06:57:13.100Z,92.14
2022-10-06T06:58:13.099Z,91.91
2022-10-06T06:59:13.093Z,91.91
2022-10-06T07:00:13.102Z,91.62
2022-10-06T07:01:13.111Z,91.57
2022-10-06T07:02:13.162Z,91.33
2022-10-06T07:03:13.110Z,89.45
2022-10-06T07:04:13.095Z,88.49
2022-10-06T07:05:13.119Z,87.86
2022-10-06T07:06:13.123Z,87.71
2022-10-06T07:07:13.112Z,86.18
2022-10-06T07:08:13.120Z,85.44
2022-10-06T07:09:13.113Z,84.58
2022-10-06T07:10:13.119Z,84.29
2022-10-06T07:11:13.134Z,84.23
2022-10-06T07:12:13.124Z,83.08
2022-10-06T07:13:13.373Z,82.64
2022-10-06T07:14:13.129Z,82.06
2022-10-06T07:15:13.140Z,81.81
2022-10-06T07:16:13.226Z,81.54
2022-10-06T07:17:13.123Z,82.50
2022-10-06T07:18:13.135Z,81.96
2022-10-06T07:19:13.127Z,81.96
2022-10-06T07:20:13.139Z,81.91
2022-10-06T07:21:13.184Z,81.35
2022-10-06T07:22:13.155Z,82.29
2022-10-06T07:23:13.182Z,81.43
2022-10-06T07:24:13.138Z,80.66
2022-10-06T07:25:13.157Z,79.98
2022-10-06T07:26:13.157Z,79.41
2022-10-06T07:27:13.161Z,80.85
2022-10-06T07:28:13.226Z,80.27
2022-10-06T07:29:13.166Z,79.69
2022-10-06T07:30:13.163Z,79.60
2022-10-06T07:31:13.205Z,80.08
2022-10-06T07:32:13.180Z,79.74
2022-10-06T07:33:13.184Z,79.89
2022-10-06T07:34:13.170Z,80.37
2022-10-06T07:35:13.187Z,80.33
2022-10-06T07:36:13.172Z,81.35
2022-10-06T07:37:13.175Z,81.20
2022-10-06T07:38:13.199Z,82.12
2022-10-06T07:39:13.182Z,81.20
2022-10-06T07:40:13.194Z,81.83
2022-10-06T07:41:20.784Z,82.02
2022-10-06T07:42:13.195Z,83.33
2022-10-06T07:43:13.220Z,83.62
2022-10-06T07:44:13.213Z,83.96
2022-10-06T07:45:13.234Z,83.72
2022-10-06T07:46:13.313Z,82.21
2022-10-06T07:47:13.210Z,81.68
2022-10-06T07:48:13.212Z,80.56
2022-10-06T07:49:13.219Z,79.69
2022-10-06T07:50:13.238Z,79.11
2022-10-06T07:51:13.258Z,79.50
2022-10-06T07:52:13.218Z,78.92
2022-10-06T07:53:13.223Z,77.96
2022-10-06T07:54:13.233Z,77.90
2022-10-06T07:55:13.232Z,77.55
2022-10-06T07:56:13.249Z,77.33
2022-10-06T07:57:13.247Z,78.00
2022-10-06T07:58:13.270Z,77.61
2022-10-06T07:59:13.246Z,77.03
2022-10-06T08:00:13.249Z,77.48
2022-10-06T08:01:13.273Z,77.48
2022-10-06T08:02:13.396Z,78.02
2022-10-06T08:03:13.358Z,78.40
2022-10-06T08:04:13.287Z,79.43
2022-10-06T08:05:13.290Z,79.77
2022-10-06T08:06:13.295Z,80.83
2022-10-06T08:07:13.301Z,80.68
2022-10-06T08:08:13.297Z,80.83
2022-10-06T08:09:13.328Z,79.23
2022-10-06T08:10:13.298Z,78.61
2022-10-06T08:11:13.309Z,79.10
2022-10-06T08:12:13.327Z,80.02
2022-10-06T08:13:13.309Z,80.83
2022-10-06T08:14:13.338Z,79.00
2022-10-06T08:15:13.336Z,78.31
2022-10-06T08:16:13.417Z,77.40
2022-10-06T08:17:13.337Z,78.03
2022-10-06T08:18:33.613Z,77.46
2022-10-06T08:19:13.358Z,76.63
2022-10-06T08:20:13.350Z,76.09
2022-10-06T08:21:13.367Z,75.90
2022-10-06T08:22:13.348Z,75.26
2022-10-06T08:23:13.355Z,74.10
2022-10-06T08:24:13.366Z,73.68
2022-10-06T08:25:13.709Z,74.01
2022-10-06T08:26:13.368Z,73.43
2022-10-06T08:27:13.404Z,72.08
2022-10-06T08:28:13.414Z,72.63
2022-10-06T08:29:13.383Z,72.75
2022-10-06T08:30:13.398Z,72.72
2022-10-06T08:31:13.497Z,72.56
2022-10-06T08:32:13.402Z,72.43
2022-10-06T08:33:13.403Z,72.08
2022-10-06T08:34:13.429Z,71.60
2022-10-06T08:35:13.432Z,71.54
2022-10-06T08:36:13.429Z,70.44
2022-10-06T08:37:20.103Z,70.15
2022-10-06T08:38:13.424Z,69.03
2022-10-06T08:39:13.430Z,68.77
2022-10-06T08:40:13.466Z,69.83
2022-10-06T08:41:13.472Z,69.83
2022-10-06T08:42:13.537Z,69.29
2022-10-06T08:43:13.452Z,69.29
2022-10-06T08:44:13.473Z,69.29
2022-10-06T08:45:13.463Z,67.90
2022-10-06T08:46:13.547Z,68.61
2022-10-06T08:47:13.483Z,68.71
2022-10-06T08:48:13.496Z,68.71
2022-10-06T08:49:13.498Z,68.26
2022-10-06T08:50:13.506Z,68.65
2022-10-06T08:51:13.508Z,67.58
2022-10-06T08:52:13.543Z,67.62
2022-10-06T08:53:15.620Z,67.07
2022-10-06T08:54:13.535Z,67.65
2022-10-06T08:55:13.553Z,66.97
2022-10-06T08:56:13.541Z,66.82
2022-10-06T08:57:13.563Z,66.56
2022-10-06T08:58:13.584Z,65.98
2022-10-06T08:59:13.565Z,65.59
2022-10-06T09:00:14.283Z,64.24
2022-10-06T09:01:13.646Z,63.69
2022-10-06T09:02:13.693Z,64.31
2022-10-06T09:03:13.594Z,64.50
2022-10-06T09:04:13.603Z,66.63
2022-10-06T09:05:13.604Z,65.47
2022-10-06T09:06:13.683Z,65.24
2022-10-06T09:07:13.631Z,66.05
2022-10-06T09:08:13.662Z,66.17
2022-10-06T09:09:13.645Z,64.63
2022-10-06T09:10:13.642Z,65.27
2022-10-06T09:11:13.684Z,65.72
2022-10-06T09:12:13.669Z,64.27
2022-10-06T09:13:16.308Z,63.50
2022-10-06T09:14:13.670Z,63.69
2022-10-06T09:15:13.689Z,64.01
2022-10-06T09:16:13.733Z,63.63
2022-10-06T09:17:13.732Z,62.27
2022-10-06T09:18:13.713Z,61.37
2022-10-06T09:19:13.729Z,62.44
2022-10-06T09:20:13.724Z,64.21
2022-10-06T09:21:13.731Z,63.66
2022-10-06T09:22:13.781Z,63.15
2022-10-06T09:23:13.778Z,64.31
2022-10-06T09:24:13.794Z,63.92
2022-10-06T09:25:13.765Z,64.24
2022-10-06T09:26:13.779Z,63.18
2022-10-06T09:27:13.806Z,63.56
2022-10-06T09:28:13.839Z,63.08
2022-10-06T09:29:13.810Z,63.34
2022-10-06T09:30:13.811Z,64.34
2022-10-06T09:31:13.844Z,63.95
2022-10-06T09:32:13.837Z,64.14
2022-10-06T09:33:13.855Z,63.82
2022-10-06T09:34:13.846Z,65.24
2022-10-06T09:35:13.850Z,65.24
2022-10-06T09:36:13.872Z,64.89
2022-10-06T09:37:13.907Z,65.27
2022-10-06T09:38:13.894Z,65.20
2022-10-06T09:39:13.891Z,64.92
2022-10-06T09:40:13.890Z,64.72
2022-10-06T09:41:13.900Z,64.72
2022-10-06T09:42:13.942Z,64.24
2022-10-06T09:43:13.943Z,63.28
2022-10-06T09:44:13.931Z,63.47
2022-10-06T09:45:13.943Z,64.37
2022-10-06T09:46:13.943Z,64.47
2022-10-06T09:47:13.958Z,64.18
2022-10-06T09:48:13.953Z,63.60
2022-10-06T09:49:13.977Z,64.21
2022-10-06T09:50:13.971Z,63.98
2022-10-06T09:51:13.986Z,63.69
2022-10-06T09:52:13.995Z,64.27
2022-10-06T09:53:13.994Z,63.95
2022-10-06T09:54:14.017Z,64.14
2022-10-06T09:55:14.023Z,64.59
2022-10-06T09:56:14.011Z,64.59
2022-10-06T09:57:14.022Z,64.40
2022-10-06T09:58:14.023Z,65.14
2022-10-06T09:59:14.047Z,65.78
2022-10-06T10:00:14.053Z,66.08
2022-10-06T10:01:14.118Z,65.95
2022-10-06T10:02:14.056Z,66.04
2022-10-06T10:03:14.094Z,66.24
2022-10-06T10:04:21.848Z,67.04
2022-10-06T10:05:14.083Z,66.94
2022-10-06T10:06:14.078Z,65.50
2022-10-06T10:07:14.093Z,64.63
2022-10-06T10:08:14.104Z,64.72
2022-10-06T10:09:16.658Z,64.82
2022-10-06T10:10:14.103Z,65.14
2022-10-06T10:11:14.110Z,65.01
2022-10-06T10:12:14.133Z,65.20
2022-10-06T10:13:14.136Z,65.34
2022-10-06T10:14:14.142Z,65.53
2022-10-06T10:15:14.141Z,65.27
2022-10-06T10:16:14.249Z,64.01
2022-10-06T10:17:14.155Z,63.47
2022-10-06T10:18:14.175Z,63.21
2022-10-06T10:19:14.181Z,62.02
2022-10-06T10:20:14.186Z,61.95
2022-10-06T10:21:14.201Z,63.02
2022-10-06T10:22:14.200Z,62.66
2022-10-06T10:23:14.209Z,60.75
2022-10-06T10:24:14.216Z,60.27
2022-10-06T10:25:14.213Z,60.59
2022-10-06T10:26:14.238Z,58.07
2022-10-06T10:27:14.246Z,58.37
2022-10-06T10:28:14.308Z,57.23
2022-10-06T10:29:14.267Z,56.94
2022-10-06T10:30:14.336Z,56.00
2022-10-06T10:31:14.302Z,56.00
2022-10-06T10:32:14.277Z,56.03
2022-10-06T10:33:14.375Z,55.35
2022-10-06T10:34:23.970Z,54.48
2022-10-06T10:35:14.302Z,54.26
2022-10-06T10:36:14.321Z,53.89
2022-10-06T10:37:14.345Z,53.49
2022-10-06T10:38:15.006Z,54.96
2022-10-06T10:39:14.351Z,54.55
2022-10-06T10:40:14.394Z,54.16
2022-10-06T10:41:14.385Z,54.35
2022-10-06T10:42:14.379Z,55.22
2022-10-06T10:43:14.385Z,55.42
2022-10-06T10:44:14.401Z,55.52
2022-10-06T10:45:14.402Z,55.30
2022-10-06T10:46:14.442Z,55.62
2022-10-06T10:47:14.426Z,55.90
2022-10-06T10:48:14.433Z,55.44
2022-10-06T10:49:14.441Z,55.18
2022-10-06T10:50:14.493Z,54.44
2022-10-06T10:51:14.466Z,54.41
2022-10-06T10:52:14.460Z,54.50
2022-10-06T10:53:14.507Z,54.80
2022-10-06T10:54:14.471Z,53.27
2022-10-06T10:55:14.477Z,52.66
2022-10-06T10:56:14.508Z,52.66
2022-10-06T10:57:14.518Z,53.29
2022-10-06T10:58:14.506Z,54.06
2022-10-06T10:59:14.512Z,53.51
2022-10-06T11:00:14.538Z,53.63
2022-10-06T11:01:14.584Z,53.53
2022-10-06T11:02:14.597Z,53.47
2022-10-06T11:03:14.570Z,52.81
2022-10-06T11:04:14.574Z,52.59
2022-10-06T11:05:14.568Z,52.50
2022-10-06T11:06:14.582Z,51.62
2022-10-06T11:07:14.606Z,51.79
2022-10-06T11:08:14.597Z,52.66
2022-10-06T11:09:14.625Z,52.64
2022-10-06T11:10:14.612Z,52.83
2022-10-06T11:11:14.632Z,53.51
2022-10-06T11:12:14.650Z,53.41
2022-10-06T11:13:14.648Z,53.53
2022-10-06T11:14:14.656Z,53.44
2022-10-06T11:15:14.694Z,53.89
2022-10-06T11:16:14.737Z,54.52
2022-10-06T11:17:14.689Z,55.68
2022-10-06T11:18:16.200Z,55.78
2022-10-06T11:19:14.696Z,55.52
2022-10-06T11:20:14.764Z,55.44
2022-10-06T11:21:14.742Z,54.11
2022-10-06T11:22:14.750Z,52.59
2022-10-06T11:23:14.766Z,52.13
2022-10-06T11:24:14.758Z,51.06
2022-10-06T11:25:14.794Z,51.23
2022-10-06T11:26:14.773Z,52.01
2022-10-06T11:27:14.834Z,50.87
2022-10-06T11:28:14.894Z,50.99
2022-10-06T11:29:14.803Z,50.12
2022-10-06T11:30:14.815Z,49.54
2022-10-06T11:31:17.659Z,50.29
2022-10-06T11:32:14.827Z,50.82
2022-10-06T11:33:14.826Z,50.99
2022-10-06T11:34:14.849Z,52.66
2022-10-06T11:35:14.840Z,50.62
2022-10-06T11:36:14.860Z,50.36
2022-10-06T11:37:14.867Z,49.97
2022-10-06T11:38:14.861Z,49.32
2022-10-06T11:39:14.898Z,49.19
2022-10-06T11:40:14.890Z,49.99
2022-10-06T11:41:14.898Z,49.82
2022-10-06T11:42:14.910Z,48.78
2022-10-06T11:43:14.906Z,48.41
2022-10-06T11:44:14.923Z,47.96
2022-10-06T11:45:14.958Z,48.07
2022-10-06T11:46:14.981Z,47.90
2022-10-06T11:47:14.931Z,47.25
2022-10-06T11:48:14.939Z,46.59
2022-10-06T11:49:14.976Z,45.44
2022-10-06T11:50:14.948Z,45.22
2022-10-06T11:51:14.968Z,44.93
2022-10-06T11:52:14.975Z,44.49
2022-10-06T11:53:14.980Z,44.79
2022-10-06T11:54:15.009Z,45.28
2022-10-06T11:55:15.005Z,46.51
2022-10-06T11:56:14.991Z,46.11
2022-10-06T11:57:14.996Z,46.52
2022-10-06T11:58:40.775Z,48.57
2022-10-06T11:59:15.014Z,48.88
2022-10-06T12:00:15.014Z,48.66
2022-10-06T12:01:15.034Z,48.37
2022-10-06T12:02:15.107Z,49.05
2022-10-06T12:03:15.124Z,50.12
2022-10-06T12:04:15.059Z,50.02
2022-10-06T12:06:15.073Z,49.71
2022-10-06T12:07:15.089Z,50.07
2022-10-06T12:08:15.088Z,50.16
2022-10-06T12:09:15.092Z,51.11
2022-10-06T12:10:15.087Z,51.09
2022-10-06T12:11:15.102Z,51.84
2022-10-06T12:12:15.113Z,52.12
2022-10-06T12:13:41.239Z,52.39
2022-10-06T12:17:19.206Z,53.99
2022-10-06T12:18:15.131Z,55.24
2022-10-06T12:19:15.145Z,55.31
2022-10-06T12:20:15.143Z,56.02
2022-10-06T12:21:15.139Z,55.41
2022-10-06T12:22:15.174Z,56.67
2022-10-06T12:23:15.159Z,56.98
2022-10-06T12:24:15.158Z,55.99
2022-10-06T12:25:15.183Z,56.18
2022-10-06T12:26:15.175Z,56.54
2022-10-06T12:27:15.193Z,56.63
2022-10-06T12:28:15.243Z,56.45
2022-10-06T12:29:15.193Z,57.73
2022-10-06T12:30:15.205Z,57.03
2022-10-06T12:31:18.281Z,56.13
2022-10-06T12:32:15.195Z,56.22
2022-10-06T12:33:15.208Z,56.41
2022-10-06T12:34:15.215Z,56.90
2022-10-06T12:35:15.211Z,56.99
2022-10-06T12:36:15.240Z,55.65
2022-10-06T12:37:15.225Z,56.00
2022-10-06T12:38:15.238Z,56.68
2022-10-06T12:39:15.232Z,56.58
2022-10-06T12:40:15.242Z,56.77
2022-10-06T12:41:15.257Z,58.12
2022-10-06T12:42:15.267Z,57.26
2022-10-06T12:43:15.262Z,57.74
2022-10-06T12:44:15.260Z,58.32
2022-10-06T12:45:15.271Z,58.03
2022-10-06T12:46:15.310Z,57.74
2022-10-06T12:47:15.299Z,58.03
2022-10-06T12:48:15.308Z,57.16
2022-10-06T12:49:15.291Z,57.45
2022-10-06T12:50:15.281Z,56.56
2022-10-06T12:51:15.285Z,56.94
2022-10-06T12:52:15.303Z,57.23
2022-10-06T12:53:15.322Z,57.71
2022-10-06T12:54:15.322Z,58.00
2022-10-06T12:55:15.310Z,57.71
2022-10-06T12:56:15.332Z,57.93